Terminal Aerodrome Forecast
Issued by NWS

Home | Current Version | Previous Version | Text Only | Print | Product List | Glossary On
Versions: 1 2 3 4 5 6 7 8 9 10 11 12 13 14 15
000
FTUS45 KREV 201210 RRA
TAFTRK
TAF
KTRK 201210Z 2012/2112 20010G20KT 2SM -SN BR SCT020 BKN030
     FM201400 19010KT 3/4SM -SN BR VV008
     FM202200 22012G26KT 2SM -SN BR FEW005 OVC012=

USA.gov is the U.S. government's official web portal to all federal, state and local government web resources and services.